Saint Stephen, United Kingdom
Current Conditions -  °F | °C
As of 12:50 PM on Friday 24 Oct 2014 (Local Time) from EGHQ Reporting Station
Drizzle Drizzle  
Wind Chill: 14°   Ceiling: 200
Heat Index: 14°   Visibility: 2.1mi
Dew Point: 13°   Wind: 13mph
Humidity: 94%   Direction: 260°W
Pressure: 29.97"   Gusts: NA
Location:  50.33°N, 4.9°W
Report Text: EGHQ 241150Z 26011KT 3500 -DZ BR BKN002 14/13 Q1015
Loading
Personal Weather Stations






























Interactive Weather Map
Tropical Storm Tracking
New forecast layout! Learn more

10-Day Weather Forecast

Advertisements
Track Severe Weather on mobile